Detall de PIREP

Printer-friendly versionPDF version

[2011/02/18 09:13:00]
Flight IATA:CT3222
Pilot Number:011
Company ICAO:CAT
Aircraft Type:B738/F
PAX:160
Departing Airport: LPPT
Destination Airport: LEPA
Alternate Airport:LEBL
Online: VATSIM
Route:EXONA DCT PORLI UN870 DIPOL UH100 CJN UN733 GATOS
Flight Level:F380
No Slew and time accel
No pause
Crash detect
Detect pilot in Cockpit between each 30 and 45 minutes
09:13 Zero fuel Weight: 135991 Lbs, Fuel Weight: 17257 Lbs
09:13 VATSIM:LPPT 180900Z 00000KT 9999 -RA FEW007 SCT020 11/10 Q1018 NOSIG
09:13 VATSIM:LEPA 180900Z 30013KT 9999 FEW025 SCT045 13/08 Q1014 NOSIG
09:14 Parking Brakes off
09:30 Take-off
09:30 Take off Weight: 151768 Lbs
09:30 Wind: 130º @ 001 Knots Heading: 201º
09:30 POS N38º 46´ 38´´ W009º 08´ 16´´
09:30 Flaps:5 at 174 Knots
09:30 Gear Up: 177 Knots
09:32 Flaps:4 at 215 Knots
09:32 Flaps:3 at 222 Knots
09:32 Flaps:2 at 224 Knots
09:32 Flaps:1 at 232 Knots
09:32 Flaps:0 at 232 Knots
09:45 Wind:137º@009 Knots Heading: 044º Ground Speed: 396 Knots Altitude 33786 ft
09:49 TOC
09:49 Fuel Weight: 12051 Lb
10:00 Wind:176º@006 Knots Heading: 067º Ground Speed: 454 Knots Altitude 38133 ft
10:15 Wind:140º@004 Knots Heading: 093º Ground Speed: 453 Knots Altitude 38113 ft
10:30 Wind:279º@025 Knots Heading: 119º Ground Speed: 476 Knots Altitude 38106 ft
10:35 TOD
10:35 Fuel Weight: 8523 Lb
10:45 Wind:289º@037 Knots Heading: 090º Ground Speed: 406 Knots Altitude 22378 ft
11:00 Wind:300º@029 Knots Heading: 052º Ground Speed: 283 Knots Altitude 6965 ft
11:07 Flaps:1 at 265 Knots
11:07 Flaps:2 at 262 Knots
11:08 Flaps:3 at 233 Knots
11:08 Flaps:4 at 233 Knots
11:09 Flaps:5 at 203 Knots
11:09 Flaps:6 at 195 Knots
11:09 Gear Down: 195 Knots
11:10 Flaps:7 at 155 Knots
11:10 Flaps:8 at 146 Knots
11:13 TouchDown:Rate -57 ft/min Speed: 114 Knots
11:13 VATSIM:LEPA 181100Z 31014KT 9999 FEW025 14/09 Q1014 NOSIG
11:13 Land
11:13 Wind:299º@014 Knots
11:13 Heading: 239º
11:13 Flight Duration: 01:43
11:13 Landing Weight: 142595 Lbs
11:13 POS N39º 32´ 43´´ E002º 44´ 25´´
11:16 Parking brakes on
11:16 Block to Block Duration: 02:02
11:16 Final Fuel: 6351 Lbls
11:16 Spent Fuel: 10906 Lbls
11:16 Flight Length: 551 NM
11:16 TOD Land Length: 207 NM

Exportar CSV

Powered by Drupal - Modified by Danger4k